sensor_id;sensor_type;location;lat;lon;timestamp;temperature;humidity
78514;SHT31;67814;51.976;5.810;2023-06-22T00:00:05;21.6;64.0
78514;SHT31;67814;51.976;5.810;2023-06-22T00:02:40;21.6;63.9
78514;SHT31;67814;51.976;5.810;2023-06-22T00:05:09;21.6;63.2
78514;SHT31;67814;51.976;5.810;2023-06-22T00:07:37;21.6;63.2
78514;SHT31;67814;51.976;5.810;2023-06-22T00:10:06;21.5;63.3
78514;SHT31;67814;51.976;5.810;2023-06-22T00:12:35;21.5;63.2
78514;SHT31;67814;51.976;5.810;2023-06-22T00:15:04;21.5;63.5
78514;SHT31;67814;51.976;5.810;2023-06-22T00:17:33;21.5;63.1
78514;SHT31;67814;51.976;5.810;2023-06-22T00:20:01;21.4;62.6
78514;SHT31;67814;51.976;5.810;2023-06-22T00:22:35;21.4;63.1
78514;SHT31;67814;51.976;5.810;2023-06-22T00:25:06;21.4;63.2
78514;SHT31;67814;51.976;5.810;2023-06-22T00:27:35;21.4;63.1
78514;SHT31;67814;51.976;5.810;2023-06-22T00:30:04;21.4;63.0
78514;SHT31;67814;51.976;5.810;2023-06-22T00:32:34;21.4;63.6
78514;SHT31;67814;51.976;5.810;2023-06-22T00:35:03;21.3;62.7
78514;SHT31;67814;51.976;5.810;2023-06-22T00:37:32;21.3;63.0
78514;SHT31;67814;51.976;5.810;2023-06-22T00:40:02;21.3;63.4
78514;SHT31;67814;51.976;5.810;2023-06-22T00:42:31;21.3;63.5
78514;SHT31;67814;51.976;5.810;2023-06-22T00:45:00;21.2;64.1
78514;SHT31;67814;51.976;5.810;2023-06-22T00:47:28;21.2;63.8
78514;SHT31;67814;51.976;5.810;2023-06-22T00:49:57;21.2;63.3
78514;SHT31;67814;51.976;5.810;2023-06-22T00:52:27;21.2;63.8
78514;SHT31;67814;51.976;5.810;2023-06-22T00:54:58;21.1;63.8
78514;SHT31;67814;51.976;5.810;2023-06-22T00:57:28;21.1;64.2
78514;SHT31;67814;51.976;5.810;2023-06-22T00:59:57;21.1;63.8
78514;SHT31;67814;51.976;5.810;2023-06-22T01:02:26;21.1;64.1
78514;SHT31;67814;51.976;5.810;2023-06-22T01:04:58;21.0;64.2
78514;SHT31;67814;51.976;5.810;2023-06-22T01:07:34;21.0;64.2
78514;SHT31;67814;51.976;5.810;2023-06-22T01:10:08;21.0;64.2
78514;SHT31;67814;51.976;5.810;2023-06-22T01:12:44;20.9;64.4
78514;SHT31;67814;51.976;5.810;2023-06-22T01:15:16;20.9;63.9
78514;SHT31;67814;51.976;5.810;2023-06-22T01:17:48;20.9;64.5
78514;SHT31;67814;51.976;5.810;2023-06-22T01:20:19;20.8;64.3
78514;SHT31;67814;51.976;5.810;2023-06-22T01:23:02;20.8;64.7
78514;SHT31;67814;51.976;5.810;2023-06-22T01:25:45;20.8;64.6
78514;SHT31;67814;51.976;5.810;2023-06-22T01:28:24;20.8;64.8
78514;SHT31;67814;51.976;5.810;2023-06-22T01:30:55;20.7;64.8
78514;SHT31;67814;51.976;5.810;2023-06-22T01:33:33;20.7;64.7
78514;SHT31;67814;51.976;5.810;2023-06-22T01:36:07;20.7;64.9
78514;SHT31;67814;51.976;5.810;2023-06-22T01:38:37;20.6;64.7
78514;SHT31;67814;51.976;5.810;2023-06-22T01:41:06;20.6;65.1
78514;SHT31;67814;51.976;5.810;2023-06-22T01:43:36;20.6;64.9
78514;SHT31;67814;51.976;5.810;2023-06-22T01:46:05;20.6;64.9
78514;SHT31;67814;51.976;5.810;2023-06-22T01:48:36;20.6;65.4
78514;SHT31;67814;51.976;5.810;2023-06-22T01:51:05;20.6;66.1
78514;SHT31;67814;51.976;5.810;2023-06-22T01:53:33;20.5;65.7
78514;SHT31;67814;51.976;5.810;2023-06-22T01:56:02;20.5;65.7
78514;SHT31;67814;51.976;5.810;2023-06-22T01:58:33;20.5;65.7
78514;SHT31;67814;51.976;5.810;2023-06-22T02:01:10;20.5;65.6
78514;SHT31;67814;51.976;5.810;2023-06-22T02:03:43;20.5;65.8
78514;SHT31;67814;51.976;5.810;2023-06-22T02:06:17;20.5;66.0
78514;SHT31;67814;51.976;5.810;2023-06-22T02:08:51;20.4;65.9
78514;SHT31;67814;51.976;5.810;2023-06-22T02:11:21;20.4;66.1
78514;SHT31;67814;51.976;5.810;2023-06-22T02:13:51;20.4;65.6
78514;SHT31;67814;51.976;5.810;2023-06-22T02:16:20;20.4;66.0
78514;SHT31;67814;51.976;5.810;2023-06-22T02:18:50;20.3;66.1
78514;SHT31;67814;51.976;5.810;2023-06-22T02:21:20;20.3;65.8
78514;SHT31;67814;51.976;5.810;2023-06-22T02:23:48;20.3;65.7
78514;SHT31;67814;51.976;5.810;2023-06-22T02:26:18;20.3;65.8
78514;SHT31;67814;51.976;5.810;2023-06-22T02:28:46;20.2;66.1
78514;SHT31;67814;51.976;5.810;2023-06-22T02:31:15;20.2;66.6
78514;SHT31;67814;51.976;5.810;2023-06-22T02:33:43;20.2;65.7
78514;SHT31;67814;51.976;5.810;2023-06-22T02:36:12;20.2;66.1
78514;SHT31;67814;51.976;5.810;2023-06-22T02:38:40;20.2;65.6
78514;SHT31;67814;51.976;5.810;2023-06-22T02:41:14;20.1;66.2
78514;SHT31;67814;51.976;5.810;2023-06-22T02:43:44;20.1;66.1
78514;SHT31;67814;51.976;5.810;2023-06-22T02:46:14;20.1;66.8
78514;SHT31;67814;51.976;5.810;2023-06-22T02:48:42;20.1;66.7
78514;SHT31;67814;51.976;5.810;2023-06-22T02:51:11;20.1;65.7
78514;SHT31;67814;51.976;5.810;2023-06-22T02:53:39;20.1;66.7
78514;SHT31;67814;51.976;5.810;2023-06-22T02:56:11;20.1;67.0
78514;SHT31;67814;51.976;5.810;2023-06-22T02:58:41;20.1;66.0
78514;SHT31;67814;51.976;5.810;2023-06-22T03:01:10;20.1;66.6
78514;SHT31;67814;51.976;5.810;2023-06-22T03:03:39;20.1;66.7
78514;SHT31;67814;51.976;5.810;2023-06-22T03:06:07;20.1;66.6
78514;SHT31;67814;51.976;5.810;2023-06-22T03:08:40;20.1;66.1
78514;SHT31;67814;51.976;5.810;2023-06-22T03:11:09;20.1;66.7
78514;SHT31;67814;51.976;5.810;2023-06-22T03:13:38;20.1;66.7
78514;SHT31;67814;51.976;5.810;2023-06-22T03:16:08;20.1;66.3
78514;SHT31;67814;51.976;5.810;2023-06-22T03:18:37;20.1;66.6
78514;SHT31;67814;51.976;5.810;2023-06-22T03:21:05;20.2;66.4
78514;SHT31;67814;51.976;5.810;2023-06-22T03:23:34;20.2;66.1
78514;SHT31;67814;51.976;5.810;2023-06-22T03:26:03;20.2;66.2
78514;SHT31;67814;51.976;5.810;2023-06-22T03:28:32;20.2;66.4
78514;SHT31;67814;51.976;5.810;2023-06-22T03:31:00;20.2;66.6
78514;SHT31;67814;51.976;5.810;2023-06-22T03:33:29;20.2;66.8
78514;SHT31;67814;51.976;5.810;2023-06-22T03:35:58;20.2;67.2
78514;SHT31;67814;51.976;5.810;2023-06-22T03:38:26;20.2;66.9
78514;SHT31;67814;51.976;5.810;2023-06-22T03:40:55;20.2;66.9
78514;SHT31;67814;51.976;5.810;2023-06-22T03:43:24;20.2;67.3
78514;SHT31;67814;51.976;5.810;2023-06-22T03:45:54;20.2;67.4
78514;SHT31;67814;51.976;5.810;2023-06-22T03:48:23;20.1;67.2
78514;SHT31;67814;51.976;5.810;2023-06-22T03:50:51;20.1;67.6
78514;SHT31;67814;51.976;5.810;2023-06-22T03:53:20;20.1;67.3
78514;SHT31;67814;51.976;5.810;2023-06-22T03:55:52;20.1;67.5
78514;SHT31;67814;51.976;5.810;2023-06-22T03:58:23;20.1;67.5
78514;SHT31;67814;51.976;5.810;2023-06-22T04:00:52;20.1;67.8
78514;SHT31;67814;51.976;5.810;2023-06-22T04:03:23;20.1;67.7
78514;SHT31;67814;51.976;5.810;2023-06-22T04:05:53;20.1;67.8
78514;SHT31;67814;51.976;5.810;2023-06-22T04:08:22;20.1;68.4
78514;SHT31;67814;51.976;5.810;2023-06-22T04:10:50;20.1;68.7
78514;SHT31;67814;51.976;5.810;2023-06-22T04:13:19;20.1;68.3
78514;SHT31;67814;51.976;5.810;2023-06-22T04:15:48;20.1;68.5
78514;SHT31;67814;51.976;5.810;2023-06-22T04:18:16;20.1;68.6
78514;SHT31;67814;51.976;5.810;2023-06-22T04:20:45;20.1;68.5
78514;SHT31;67814;51.976;5.810;2023-06-22T04:23:13;20.1;68.6
78514;SHT31;67814;51.976;5.810;2023-06-22T04:25:43;20.1;68.7
78514;SHT31;67814;51.976;5.810;2023-06-22T04:28:12;20.1;68.8
78514;SHT31;67814;51.976;5.810;2023-06-22T04:30:40;20.1;69.0
78514;SHT31;67814;51.976;5.810;2023-06-22T04:33:12;20.1;69.1
78514;SHT31;67814;51.976;5.810;2023-06-22T04:35:44;20.2;69.3
78514;SHT31;67814;51.976;5.810;2023-06-22T04:38:13;20.2;69.2
78514;SHT31;67814;51.976;5.810;2023-06-22T04:40:44;20.3;69.1
78514;SHT31;67814;51.976;5.810;2023-06-22T04:43:12;20.3;68.9
78514;SHT31;67814;51.976;5.810;2023-06-22T04:45:41;20.4;68.8
78514;SHT31;67814;51.976;5.810;2023-06-22T04:48:09;20.5;68.6
78514;SHT31;67814;51.976;5.810;2023-06-22T04:50:42;20.5;68.3
78514;SHT31;67814;51.976;5.810;2023-06-22T04:53:10;20.6;68.3
78514;SHT31;67814;51.976;5.810;2023-06-22T04:55:39;20.7;68.0
78514;SHT31;67814;51.976;5.810;2023-06-22T04:58:08;20.7;67.8
78514;SHT31;67814;51.976;5.810;2023-06-22T05:00:39;20.8;67.7
78514;SHT31;67814;51.976;5.810;2023-06-22T05:03:07;20.9;67.8
78514;SHT31;67814;51.976;5.810;2023-06-22T05:05:37;20.9;67.8
78514;SHT31;67814;51.976;5.810;2023-06-22T05:08:06;21.0;67.7
78514;SHT31;67814;51.976;5.810;2023-06-22T05:10:34;21.1;67.2
78514;SHT31;67814;51.976;5.810;2023-06-22T05:13:04;21.2;67.1
78514;SHT31;67814;51.976;5.810;2023-06-22T05:15:33;21.3;67.4
78514;SHT31;67814;51.976;5.810;2023-06-22T05:18:06;21.4;66.0
78514;SHT31;67814;51.976;5.810;2023-06-22T05:20:34;21.5;65.7
78514;SHT31;67814;51.976;5.810;2023-06-22T05:23:03;21.6;65.4
78514;SHT31;67814;51.976;5.810;2023-06-22T05:25:31;21.6;65.7
78514;SHT31;67814;51.976;5.810;2023-06-22T05:28:00;21.7;65.2
78514;SHT31;67814;51.976;5.810;2023-06-22T05:30:34;21.8;65.7
78514;SHT31;67814;51.976;5.810;2023-06-22T05:33:02;21.9;64.5
78514;SHT31;67814;51.976;5.810;2023-06-22T05:35:31;21.9;64.6
78514;SHT31;67814;51.976;5.810;2023-06-22T05:38:00;22.0;63.8
78514;SHT31;67814;51.976;5.810;2023-06-22T05:40:28;22.0;64.2
78514;SHT31;67814;51.976;5.810;2023-06-22T05:42:57;22.1;64.0
78514;SHT31;67814;51.976;5.810;2023-06-22T05:45:27;22.1;63.7
78514;SHT31;67814;51.976;5.810;2023-06-22T05:47:55;22.2;64.2
78514;SHT31;67814;51.976;5.810;2023-06-22T05:50:24;22.3;63.0
78514;SHT31;67814;51.976;5.810;2023-06-22T05:52:52;22.4;62.5
78514;SHT31;67814;51.976;5.810;2023-06-22T05:55:21;22.4;63.1
78514;SHT31;67814;51.976;5.810;2023-06-22T05:57:49;22.5;62.4
78514;SHT31;67814;51.976;5.810;2023-06-22T06:00:18;22.5;63.3
78514;SHT31;67814;51.976;5.810;2023-06-22T06:02:50;22.6;62.8
78514;SHT31;67814;51.976;5.810;2023-06-22T06:05:20;22.7;61.9
78514;SHT31;67814;51.976;5.810;2023-06-22T06:07:50;22.8;62.1
78514;SHT31;67814;51.976;5.810;2023-06-22T06:10:21;22.9;62.6
78514;SHT31;67814;51.976;5.810;2023-06-22T06:12:49;23.1;62.1
78514;SHT31;67814;51.976;5.810;2023-06-22T06:15:18;23.2;61.7
78514;SHT31;67814;51.976;5.810;2023-06-22T06:17:47;23.4;61.2
78514;SHT31;67814;51.976;5.810;2023-06-22T06:20:18;23.5;60.3
78514;SHT31;67814;51.976;5.810;2023-06-22T06:22:47;23.7;59.9
78514;SHT31;67814;51.976;5.810;2023-06-22T06:25:16;23.9;59.6
78514;SHT31;67814;51.976;5.810;2023-06-22T06:27:47;24.2;59.2
78514;SHT31;67814;51.976;5.810;2023-06-22T06:30:17;24.5;57.5
78514;SHT31;67814;51.976;5.810;2023-06-22T06:32:47;24.7;57.2
78514;SHT31;67814;51.976;5.810;2023-06-22T06:35:15;25.0;57.2
78514;SHT31;67814;51.976;5.810;2023-06-22T06:37:47;25.2;58.6
78514;SHT31;67814;51.976;5.810;2023-06-22T06:40:17;25.5;56.9
78514;SHT31;67814;51.976;5.810;2023-06-22T06:42:48;25.8;54.5
78514;SHT31;67814;51.976;5.810;2023-06-22T06:45:18;26.0;53.3
78514;SHT31;67814;51.976;5.810;2023-06-22T06:47:49;26.2;52.5
78514;SHT31;67814;51.976;5.810;2023-06-22T06:50:19;26.3;52.4
78514;SHT31;67814;51.976;5.810;2023-06-22T06:52:47;26.4;52.9
78514;SHT31;67814;51.976;5.810;2023-06-22T06:55:16;26.6;52.7
78514;SHT31;67814;51.976;5.810;2023-06-22T06:57:46;26.7;52.9
78514;SHT31;67814;51.976;5.810;2023-06-22T07:00:17;26.9;51.8
78514;SHT31;67814;51.976;5.810;2023-06-22T07:02:46;27.0;51.1
78514;SHT31;67814;51.976;5.810;2023-06-22T07:05:15;27.1;50.6
78514;SHT31;67814;51.976;5.810;2023-06-22T07:07:43;27.2;50.4
78514;SHT31;67814;51.976;5.810;2023-06-22T07:10:12;27.2;52.1
78514;SHT31;67814;51.976;5.810;2023-06-22T07:12:41;27.3;50.7
78514;SHT31;67814;51.976;5.810;2023-06-22T07:15:11;27.5;50.0
78514;SHT31;67814;51.976;5.810;2023-06-22T07:17:40;27.6;49.4
78514;SHT31;67814;51.976;5.810;2023-06-22T07:20:10;27.6;49.1
78514;SHT31;67814;51.976;5.810;2023-06-22T07:22:40;27.7;49.3
78514;SHT31;67814;51.976;5.810;2023-06-22T07:25:09;27.6;48.0
78514;SHT31;67814;51.976;5.810;2023-06-22T07:27:45;27.6;49.0
78514;SHT31;67814;51.976;5.810;2023-06-22T07:30:16;27.5;49.2
78514;SHT31;67814;51.976;5.810;2023-06-22T07:32:44;27.5;49.0
78514;SHT31;67814;51.976;5.810;2023-06-22T07:35:15;27.5;49.3
78514;SHT31;67814;51.976;5.810;2023-06-22T07:37:43;27.5;48.1
78514;SHT31;67814;51.976;5.810;2023-06-22T07:40:12;27.5;47.9
78514;SHT31;67814;51.976;5.810;2023-06-22T07:42:41;27.5;48.6
78514;SHT31;67814;51.976;5.810;2023-06-22T07:45:10;27.5;48.8
78514;SHT31;67814;51.976;5.810;2023-06-22T07:47:39;27.4;49.5
78514;SHT31;67814;51.976;5.810;2023-06-22T07:50:08;27.4;49.5
78514;SHT31;67814;51.976;5.810;2023-06-22T07:52:36;27.3;49.2
78514;SHT31;67814;51.976;5.810;2023-06-22T07:55:05;27.3;49.3
78514;SHT31;67814;51.976;5.810;2023-06-22T07:57:34;27.3;48.9
78514;SHT31;67814;51.976;5.810;2023-06-22T08:00:04;27.3;48.4
78514;SHT31;67814;51.976;5.810;2023-06-22T08:02:41;27.2;49.1
78514;SHT31;67814;51.976;5.810;2023-06-22T08:05:11;27.2;48.7
78514;SHT31;67814;51.976;5.810;2023-06-22T08:07:39;27.2;49.1
78514;SHT31;67814;51.976;5.810;2023-06-22T08:10:12;27.1;48.8
78514;SHT31;67814;51.976;5.810;2023-06-22T08:12:42;27.1;49.5
78514;SHT31;67814;51.976;5.810;2023-06-22T08:15:11;27.1;49.1
78514;SHT31;67814;51.976;5.810;2023-06-22T08:17:40;27.0;49.8
78514;SHT31;67814;51.976;5.810;2023-06-22T08:20:12;27.0;50.6
78514;SHT31;67814;51.976;5.810;2023-06-22T08:22:41;27.0;49.6
78514;SHT31;67814;51.976;5.810;2023-06-22T08:25:11;27.0;49.6
78514;SHT31;67814;51.976;5.810;2023-06-22T08:27:40;27.0;50.5
78514;SHT31;67814;51.976;5.810;2023-06-22T08:30:09;27.0;49.5
78514;SHT31;67814;51.976;5.810;2023-06-22T08:32:40;27.0;49.3
78514;SHT31;67814;51.976;5.810;2023-06-22T08:35:09;27.0;48.5
78514;SHT31;67814;51.976;5.810;2023-06-22T08:37:38;27.0;49.0
78514;SHT31;67814;51.976;5.810;2023-06-22T08:40:09;27.0;47.7
78514;SHT31;67814;51.976;5.810;2023-06-22T08:42:43;27.0;48.8
78514;SHT31;67814;51.976;5.810;2023-06-22T08:45:13;27.0;48.5
78514;SHT31;67814;51.976;5.810;2023-06-22T08:47:42;27.0;48.4
78514;SHT31;67814;51.976;5.810;2023-06-22T08:50:12;27.0;47.9
78514;SHT31;67814;51.976;5.810;2023-06-22T08:52:41;27.0;47.4
78514;SHT31;67814;51.976;5.810;2023-06-22T08:55:10;27.0;47.0
78514;SHT31;67814;51.976;5.810;2023-06-22T08:57:40;26.9;45.7
78514;SHT31;67814;51.976;5.810;2023-06-22T09:00:11;26.9;46.9
78514;SHT31;67814;51.976;5.810;2023-06-22T09:02:44;26.9;47.0
78514;SHT31;67814;51.976;5.810;2023-06-22T09:05:12;26.9;47.2
78514;SHT31;67814;51.976;5.810;2023-06-22T09:07:42;26.9;46.7
78514;SHT31;67814;51.976;5.810;2023-06-22T09:10:11;26.9;46.9
78514;SHT31;67814;51.976;5.810;2023-06-22T09:12:39;26.9;47.1
78514;SHT31;67814;51.976;5.810;2023-06-22T09:15:09;27.0;46.0
78514;SHT31;67814;51.976;5.810;2023-06-22T09:17:37;27.0;46.2
78514;SHT31;67814;51.976;5.810;2023-06-22T09:20:07;27.1;47.3
78514;SHT31;67814;51.976;5.810;2023-06-22T09:22:37;27.1;47.3
78514;SHT31;67814;51.976;5.810;2023-06-22T09:25:06;27.2;48.2
78514;SHT31;67814;51.976;5.810;2023-06-22T09:27:35;27.2;47.8
78514;SHT31;67814;51.976;5.810;2023-06-22T09:30:04;27.3;46.3
78514;SHT31;67814;51.976;5.810;2023-06-22T09:32:33;27.4;45.7
78514;SHT31;67814;51.976;5.810;2023-06-22T09:35:04;27.4;45.9
78514;SHT31;67814;51.976;5.810;2023-06-22T09:37:35;27.4;46.5
78514;SHT31;67814;51.976;5.810;2023-06-22T09:40:05;27.5;47.1
78514;SHT31;67814;51.976;5.810;2023-06-22T09:42:36;27.5;46.3
78514;SHT31;67814;51.976;5.810;2023-06-22T09:45:06;27.5;45.4
78514;SHT31;67814;51.976;5.810;2023-06-22T09:47:35;27.5;46.1
78514;SHT31;67814;51.976;5.810;2023-06-22T09:50:04;27.5;45.4
78514;SHT31;67814;51.976;5.810;2023-06-22T09:52:34;27.5;46.0
78514;SHT31;67814;51.976;5.810;2023-06-22T09:55:02;27.5;46.1
78514;SHT31;67814;51.976;5.810;2023-06-22T09:57:31;27.5;47.2
78514;SHT31;67814;51.976;5.810;2023-06-22T10:00:00;27.5;46.7
78514;SHT31;67814;51.976;5.810;2023-06-22T10:02:32;27.5;47.2
78514;SHT31;67814;51.976;5.810;2023-06-22T10:05:00;27.5;49.6
78514;SHT31;67814;51.976;5.810;2023-06-22T10:07:29;27.5;49.8
78514;SHT31;67814;51.976;5.810;2023-06-22T10:09:57;27.5;47.5
78514;SHT31;67814;51.976;5.810;2023-06-22T10:12:27;27.5;46.9
78514;SHT31;67814;51.976;5.810;2023-06-22T10:14:56;27.5;46.4
78514;SHT31;67814;51.976;5.810;2023-06-22T10:17:24;27.5;46.3
78514;SHT31;67814;51.976;5.810;2023-06-22T10:19:54;27.5;46.5
78514;SHT31;67814;51.976;5.810;2023-06-22T10:22:23;27.4;46.1
78514;SHT31;67814;51.976;5.810;2023-06-22T10:24:51;27.4;47.2
78514;SHT31;67814;51.976;5.810;2023-06-22T10:27:20;27.4;47.7
78514;SHT31;67814;51.976;5.810;2023-06-22T10:29:48;27.4;47.6
78514;SHT31;67814;51.976;5.810;2023-06-22T10:32:17;27.4;47.7
78514;SHT31;67814;51.976;5.810;2023-06-22T10:34:45;27.4;48.0
78514;SHT31;67814;51.976;5.810;2023-06-22T10:37:14;27.3;49.5
78514;SHT31;67814;51.976;5.810;2023-06-22T10:39:42;27.3;48.5
78514;SHT31;67814;51.976;5.810;2023-06-22T10:42:11;27.4;47.4
78514;SHT31;67814;51.976;5.810;2023-06-22T10:44:40;27.4;47.3
78514;SHT31;67814;51.976;5.810;2023-06-22T10:47:10;27.4;47.4
78514;SHT31;67814;51.976;5.810;2023-06-22T10:49:40;27.4;47.3
78514;SHT31;67814;51.976;5.810;2023-06-22T10:52:09;27.4;46.8
78514;SHT31;67814;51.976;5.810;2023-06-22T10:54:38;27.3;47.9
78514;SHT31;67814;51.976;5.810;2023-06-22T10:57:07;27.3;46.3
78514;SHT31;67814;51.976;5.810;2023-06-22T10:59:36;27.3;47.4
78514;SHT31;67814;51.976;5.810;2023-06-22T11:02:05;27.3;46.7
78514;SHT31;67814;51.976;5.810;2023-06-22T11:04:33;27.3;46.8
78514;SHT31;67814;51.976;5.810;2023-06-22T11:07:02;27.3;46.5
78514;SHT31;67814;51.976;5.810;2023-06-22T11:09:31;27.3;48.1
78514;SHT31;67814;51.976;5.810;2023-06-22T11:11:59;27.3;47.8
78514;SHT31;67814;51.976;5.810;2023-06-22T11:14:28;27.3;47.0
78514;SHT31;67814;51.976;5.810;2023-06-22T11:16:56;27.4;47.0
78514;SHT31;67814;51.976;5.810;2023-06-22T11:19:27;27.4;46.9
78514;SHT31;67814;51.976;5.810;2023-06-22T11:21:55;27.4;47.1
78514;SHT31;67814;51.976;5.810;2023-06-22T11:24:24;27.4;47.1
78514;SHT31;67814;51.976;5.810;2023-06-22T11:26:53;27.4;47.7
78514;SHT31;67814;51.976;5.810;2023-06-22T11:29:21;27.4;49.5
78514;SHT31;67814;51.976;5.810;2023-06-22T11:31:50;27.4;48.8
78514;SHT31;67814;51.976;5.810;2023-06-22T11:34:18;27.4;48.4
78514;SHT31;67814;51.976;5.810;2023-06-22T11:36:47;27.4;48.1
78514;SHT31;67814;51.976;5.810;2023-06-22T11:39:16;27.3;49.2
78514;SHT31;67814;51.976;5.810;2023-06-22T11:41:44;27.3;46.9
78514;SHT31;67814;51.976;5.810;2023-06-22T11:44:13;27.2;48.0
78514;SHT31;67814;51.976;5.810;2023-06-22T11:46:41;27.2;48.0
78514;SHT31;67814;51.976;5.810;2023-06-22T11:49:10;27.1;47.5
78514;SHT31;67814;51.976;5.810;2023-06-22T11:51:40;27.0;49.1
78514;SHT31;67814;51.976;5.810;2023-06-22T11:54:09;26.9;50.3
78514;SHT31;67814;51.976;5.810;2023-06-22T11:56:37;26.8;51.1
78514;SHT31;67814;51.976;5.810;2023-06-22T11:59:05;26.8;49.2
78514;SHT31;67814;51.976;5.810;2023-06-22T12:01:35;26.7;51.3
78514;SHT31;67814;51.976;5.810;2023-06-22T12:04:04;26.6;52.2
78514;SHT31;67814;51.976;5.810;2023-06-22T12:06:32;26.5;57.1
78514;SHT31;67814;51.976;5.810;2023-06-22T12:09:03;26.4;57.7
78514;SHT31;67814;51.976;5.810;2023-06-22T12:11:34;26.4;59.6
78514;SHT31;67814;51.976;5.810;2023-06-22T12:14:02;26.3;59.9
78514;SHT31;67814;51.976;5.810;2023-06-22T12:16:33;26.2;61.1
78514;SHT31;67814;51.976;5.810;2023-06-22T12:19:01;26.2;62.2
78514;SHT31;67814;51.976;5.810;2023-06-22T12:21:30;26.1;62.3
78514;SHT31;67814;51.976;5.810;2023-06-22T12:23:58;26.0;59.5
78514;SHT31;67814;51.976;5.810;2023-06-22T12:26:26;25.8;62.0
78514;SHT31;67814;51.976;5.810;2023-06-22T12:28:57;25.7;61.8
78514;SHT31;67814;51.976;5.810;2023-06-22T12:31:25;25.5;59.7
78514;SHT31;67814;51.976;5.810;2023-06-22T12:33:54;25.3;61.4
78514;SHT31;67814;51.976;5.810;2023-06-22T12:36:22;25.2;64.2
78514;SHT31;67814;51.976;5.810;2023-06-22T12:38:51;25.0;63.0
78514;SHT31;67814;51.976;5.810;2023-06-22T12:41:20;24.9;63.5
78514;SHT31;67814;51.976;5.810;2023-06-22T12:43:49;24.7;63.4
78514;SHT31;67814;51.976;5.810;2023-06-22T12:46:17;24.6;63.9
78514;SHT31;67814;51.976;5.810;2023-06-22T12:48:45;24.4;65.1
78514;SHT31;67814;51.976;5.810;2023-06-22T12:51:24;24.3;65.7
78514;SHT31;67814;51.976;5.810;2023-06-22T12:53:52;24.1;66.9
78514;SHT31;67814;51.976;5.810;2023-06-22T12:56:20;24.0;67.9
78514;SHT31;67814;51.976;5.810;2023-06-22T12:58:49;23.8;67.2
78514;SHT31;67814;51.976;5.810;2023-06-22T13:01:19;23.8;68.5
78514;SHT31;67814;51.976;5.810;2023-06-22T13:03:48;23.7;67.6
78514;SHT31;67814;51.976;5.810;2023-06-22T13:06:17;23.6;69.4
78514;SHT31;67814;51.976;5.810;2023-06-22T13:08:45;23.6;68.6
78514;SHT31;67814;51.976;5.810;2023-06-22T13:11:14;23.5;69.7
78514;SHT31;67814;51.976;5.810;2023-06-22T13:13:44;23.4;70.8
78514;SHT31;67814;51.976;5.810;2023-06-22T13:16:13;23.4;71.3
78514;SHT31;67814;51.976;5.810;2023-06-22T13:18:43;23.4;72.2
78514;SHT31;67814;51.976;5.810;2023-06-22T13:21:11;23.3;71.5
78514;SHT31;67814;51.976;5.810;2023-06-22T13:23:40;23.3;72.2
78514;SHT31;67814;51.976;5.810;2023-06-22T13:26:11;23.3;73.0
78514;SHT31;67814;51.976;5.810;2023-06-22T13:28:39;23.3;73.7
78514;SHT31;67814;51.976;5.810;2023-06-22T13:31:07;23.3;74.0
78514;SHT31;67814;51.976;5.810;2023-06-22T13:33:37;23.3;71.9
78514;SHT31;67814;51.976;5.810;2023-06-22T13:36:07;23.3;72.5
78514;SHT31;67814;51.976;5.810;2023-06-22T13:38:37;23.3;72.7
78514;SHT31;67814;51.976;5.810;2023-06-22T13:41:06;23.4;73.1
78514;SHT31;67814;51.976;5.810;2023-06-22T13:43:34;23.4;73.7
78514;SHT31;67814;51.976;5.810;2023-06-22T13:46:03;23.4;73.3
78514;SHT31;67814;51.976;5.810;2023-06-22T13:48:31;23.4;72.6
78514;SHT31;67814;51.976;5.810;2023-06-22T13:51:00;23.4;72.5
78514;SHT31;67814;51.976;5.810;2023-06-22T13:53:29;23.4;72.8
78514;SHT31;67814;51.976;5.810;2023-06-22T13:55:57;23.4;72.4
78514;SHT31;67814;51.976;5.810;2023-06-22T13:58:26;23.3;70.7
78514;SHT31;67814;51.976;5.810;2023-06-22T14:00:54;23.3;71.3
78514;SHT31;67814;51.976;5.810;2023-06-22T14:03:23;23.2;71.7
78514;SHT31;67814;51.976;5.810;2023-06-22T14:05:52;23.1;70.3
78514;SHT31;67814;51.976;5.810;2023-06-22T14:08:23;23.0;71.1
78514;SHT31;67814;51.976;5.810;2023-06-22T14:10:51;22.9;72.2
78514;SHT31;67814;51.976;5.810;2023-06-22T14:13:21;22.8;72.8
78514;SHT31;67814;51.976;5.810;2023-06-22T14:15:49;22.7;72.9
78514;SHT31;67814;51.976;5.810;2023-06-22T14:18:20;22.7;72.7
78514;SHT31;67814;51.976;5.810;2023-06-22T14:20:49;22.6;72.3
78514;SHT31;67814;51.976;5.810;2023-06-22T14:23:18;22.6;72.8
78514;SHT31;67814;51.976;5.810;2023-06-22T14:25:46;22.6;73.1
78514;SHT31;67814;51.976;5.810;2023-06-22T14:28:15;22.5;72.8
78514;SHT31;67814;51.976;5.810;2023-06-22T14:30:45;22.5;72.1
78514;SHT31;67814;51.976;5.810;2023-06-22T14:33:13;22.5;72.7
78514;SHT31;67814;51.976;5.810;2023-06-22T14:35:42;22.4;73.1
78514;SHT31;67814;51.976;5.810;2023-06-22T14:38:10;22.4;72.2
78514;SHT31;67814;51.976;5.810;2023-06-22T14:40:39;22.3;71.8
78514;SHT31;67814;51.976;5.810;2023-06-22T14:43:07;22.2;71.9
78514;SHT31;67814;51.976;5.810;2023-06-22T14:45:36;22.1;72.7
78514;SHT31;67814;51.976;5.810;2023-06-22T14:48:04;22.0;73.7
78514;SHT31;67814;51.976;5.810;2023-06-22T14:50:33;21.9;73.8
78514;SHT31;67814;51.976;5.810;2023-06-22T14:53:01;21.8;73.7
78514;SHT31;67814;51.976;5.810;2023-06-22T14:55:30;21.7;74.6
78514;SHT31;67814;51.976;5.810;2023-06-22T14:57:58;21.6;75.1
78514;SHT31;67814;51.976;5.810;2023-06-22T15:00:27;21.5;75.1
78514;SHT31;67814;51.976;5.810;2023-06-22T15:02:55;21.5;76.1
78514;SHT31;67814;51.976;5.810;2023-06-22T15:05:25;21.4;76.2
78514;SHT31;67814;51.976;5.810;2023-06-22T15:07:54;21.3;76.4
78514;SHT31;67814;51.976;5.810;2023-06-22T15:10:24;21.3;77.0
78514;SHT31;67814;51.976;5.810;2023-06-22T15:12:52;21.2;76.6
78514;SHT31;67814;51.976;5.810;2023-06-22T15:15:21;21.2;76.5
78514;SHT31;67814;51.976;5.810;2023-06-22T15:17:49;21.2;76.7
78514;SHT31;67814;51.976;5.810;2023-06-22T15:20:18;21.1;77.3
78514;SHT31;67814;51.976;5.810;2023-06-22T15:22:46;21.1;78.1
78514;SHT31;67814;51.976;5.810;2023-06-22T15:25:15;21.1;77.7
78514;SHT31;67814;51.976;5.810;2023-06-22T15:27:43;21.1;78.5
78514;SHT31;67814;51.976;5.810;2023-06-22T15:30:12;21.1;77.7
78514;SHT31;67814;51.976;5.810;2023-06-22T15:32:43;21.1;79.1
78514;SHT31;67814;51.976;5.810;2023-06-22T15:35:13;21.1;78.2
78514;SHT31;67814;51.976;5.810;2023-06-22T15:37:44;21.1;79.2
78514;SHT31;67814;51.976;5.810;2023-06-22T15:40:12;21.1;78.9
78514;SHT31;67814;51.976;5.810;2023-06-22T15:42:41;21.1;78.5
78514;SHT31;67814;51.976;5.810;2023-06-22T15:45:10;21.1;78.5
78514;SHT31;67814;51.976;5.810;2023-06-22T15:47:38;21.1;78.3
78514;SHT31;67814;51.976;5.810;2023-06-22T15:50:07;21.1;78.0
78514;SHT31;67814;51.976;5.810;2023-06-22T15:52:36;21.1;78.8
78514;SHT31;67814;51.976;5.810;2023-06-22T15:55:05;21.1;79.4
78514;SHT31;67814;51.976;5.810;2023-06-22T15:57:37;21.1;78.9
78514;SHT31;67814;51.976;5.810;2023-06-22T16:00:07;21.1;79.1
78514;SHT31;67814;51.976;5.810;2023-06-22T16:02:40;21.2;79.5
78514;SHT31;67814;51.976;5.810;2023-06-22T16:05:08;21.2;79.3
78514;SHT31;67814;51.976;5.810;2023-06-22T16:07:38;21.2;78.8
78514;SHT31;67814;51.976;5.810;2023-06-22T16:10:07;21.3;79.3
78514;SHT31;67814;51.976;5.810;2023-06-22T16:12:36;21.3;79.0
78514;SHT31;67814;51.976;5.810;2023-06-22T16:15:05;21.4;79.4